Time;durP1;ratioP1;P1;durP2;ratioP2;P2;SDS_P1;SDS_P2;PMS_P1;PMS_P2;Temp;Humidity;BMP_temperature;BMP_pressure;BME280_temperature;BME280_humidity;BME280_pressure;Samples;Min_cycle;Max_cycle;Signal;HPM_P1;HPM_P2
2021/01/19 00:02:01;;;;;;;7.38;6.78;;;;;;;1.89;74.22;100214.53;10180514;29;20044;-69
2021/01/19 00:07:03;;;;;;;6.90;6.40;;;;;;;2.02;74.00;100208.56;10180566;29;20048;-67
2021/01/19 00:12:04;;;;;;;6.38;5.88;;;;;;;1.95;73.91;100199.03;10180037;29;20084;-69
2021/01/19 00:17:05;;;;;;;6.72;6.03;;;;;;;2.00;73.53;100194.72;10181027;29;20048;-68
2021/01/19 00:22:07;;;;;;;6.28;5.70;;;;;;;2.02;73.05;100189.53;10179502;29;20048;-67
2021/01/19 00:27:08;;;;;;;5.93;5.43;;;;;;;2.03;72.72;100183.50;10179847;29;20112;-68
2021/01/19 00:32:09;;;;;;;4.82;4.43;;;;;;;2.23;71.81;100179.28;10180662;29;20471;-67
2021/01/19 00:37:10;;;;;;;5.35;4.68;;;;;;;2.31;71.27;100184.50;10179973;29;20048;-67
2021/01/19 00:42:11;;;;;;;4.57;4.18;;;;;;;2.38;70.67;100175.88;10180228;29;20048;-68
2021/01/19 00:47:13;;;;;;;4.50;4.10;;;;;;;2.29;71.09;100175.84;10179247;29;20447;-67
2021/01/19 00:52:14;;;;;;;4.57;4.18;;;;;;;2.39;70.57;100172.44;10178489;29;20044;-68
2021/01/19 00:57:16;;;;;;;4.97;4.03;;;;;;;2.46;69.94;100171.56;10177017;29;20044;-67
2021/01/19 01:02:17;;;;;;;3.42;3.08;;;;;;;2.49;69.44;100169.00;10177142;29;20051;-67
2021/01/19 01:07:19;;;;;;;3.83;3.45;;;;;;;2.56;69.33;100164.69;10178282;29;20036;-67
2021/01/19 01:12:20;;;;;;;4.07;3.70;;;;;;;2.52;69.71;100166.41;10176603;29;20400;-68
2021/01/19 01:17:21;;;;;;;3.13;2.92;;;;;;;2.65;68.85;100154.31;10177821;29;20052;-67
2021/01/19 01:22:22;;;;;;;3.25;2.95;;;;;;;2.64;68.75;100149.13;10179125;29;20491;-68
2021/01/19 01:27:27;;;;;;;3.25;2.95;;;;;;;2.58;68.73;100154.31;10177792;29;20068;-68
2021/01/19 01:32:28;;;;;;;3.17;2.80;;;;;;;2.65;68.82;100138.75;10177328;29;20107;-68
2021/01/19 01:37:29;;;;;;;3.45;3.15;;;;;;;2.65;68.30;100135.28;10178402;29;20059;-68
2021/01/19 01:42:30;;;;;;;2.70;2.50;;;;;;;2.55;68.81;100134.41;10178051;29;20460;-68
2021/01/19 01:47:32;;;;;;;2.90;2.58;;;;;;;2.65;68.69;100133.56;10177709;29;20105;-67
2021/01/19 01:52:33;;;;;;;3.92;2.55;;;;;;;2.72;68.31;100127.53;10177439;29;20076;-68
2021/01/19 01:57:38;;;;;;;3.47;2.63;;;;;;;2.61;68.68;100129.25;10177661;29;20037;-66
2021/01/19 02:02:58;;;;;;;2.95;2.65;;;;;;;2.71;67.77;100114.56;10177382;29;20059;-68
2021/01/19 02:08:24;;;;;;;3.05;2.35;;;;;;;2.69;68.11;100127.50;10177688;29;20066;-68
2021/01/19 02:13:50;;;;;;;2.40;2.20;;;;;;;2.61;68.01;100117.97;10177076;29;20055;-67
2021/01/19 02:19:08;;;;;;;2.30;2.10;;;;;;;2.68;67.58;100117.13;10177802;29;20091;-68
2021/01/19 02:24:16;;;;;;;2.28;2.08;;;;;;;2.61;67.90;100117.97;10178047;29;20052;-66
2021/01/19 02:29:23;;;;;;;2.75;2.55;;;;;;;2.67;67.73;100121.47;10178318;29;20045;-67
2021/01/19 02:34:46;;;;;;;2.65;2.45;;;;;;;2.65;67.92;100109.34;10176716;29;20080;-67
2021/01/19 02:40:08;;;;;;;2.55;2.17;;;;;;;2.67;67.83;100103.28;10177920;29;20100;-67
2021/01/19 02:45:10;;;;;;;2.78;2.42;;;;;;;2.77;67.44;100104.16;10184077;29;20100;-69
2021/01/19 02:50:12;;;;;;;4.88;2.60;;;;;;;2.65;67.86;100098.94;10184165;29;20131;-68
2021/01/19 02:55:15;;;;;;;3.10;2.40;;;;;;;2.75;67.50;100105.91;10186378;29;20084;-67
2021/01/19 03:00:52;;;;;;;3.00;2.70;;;;;;;2.62;68.07;100102.44;10187232;29;20051;-67
2021/01/19 03:05:55;;;;;;;2.90;2.60;;;;;;;2.74;67.43;100101.56;10187080;29;20526;-67
2021/01/19 03:10:57;;;;;;;2.40;2.20;;;;;;;2.77;67.25;100084.25;10187485;29;20047;-66
2021/01/19 03:16:09;;;;;;;2.50;2.30;;;;;;;2.89;66.80;100100.72;10190009;29;20103;-67
2021/01/19 03:21:11;;;;;;;3.08;2.33;;;;;;;2.88;66.93;100091.19;10186756;29;20063;-68
2021/01/19 03:26:12;;;;;;;3.47;2.88;;;;;;;2.78;67.11;100090.31;10181386;29;20048;-67
2021/01/19 03:31:14;;;;;;;3.03;2.83;;;;;;;2.79;66.97;100081.69;10181028;29;20056;-67
2021/01/19 03:36:15;;;;;;;2.80;2.40;;;;;;;2.88;66.53;100066.09;10182703;29;20051;-67
2021/01/19 03:41:16;;;;;;;3.00;2.70;;;;;;;2.84;66.46;100061.78;10181434;29;20054;-68
2021/01/19 03:46:17;;;;;;;2.55;2.35;;;;;;;2.91;66.17;100060.03;10182363;29;20044;-68
2021/01/19 03:51:20;;;;;;;3.42;2.65;;;;;;;2.98;65.92;100060.03;10179738;29;20071;-67
2021/01/19 03:56:21;;;;;;;2.13;1.92;;;;;;;2.92;66.51;100059.16;10182636;29;20064;-68
2021/01/19 04:01:22;;;;;;;2.40;1.95;;;;;;;2.94;65.90;100058.31;10182097;29;20099;-68
2021/01/19 04:06:23;;;;;;;2.25;1.90;;;;;;;3.01;65.95;100057.44;10181325;29;20040;-68
2021/01/19 04:11:25;;;;;;;2.28;2.08;;;;;;;2.93;65.91;100056.59;10181437;29;20048;-67
2021/01/19 04:16:26;;;;;;;3.42;2.28;;;;;;;2.96;65.87;100045.31;10179654;29;20115;-67
2021/01/19 04:21:28;;;;;;;4.57;2.45;;;;;;;2.80;66.62;100031.50;10178236;29;20040;-66
2021/01/19 04:26:31;;;;;;;1.90;1.80;;;;;;;2.89;65.92;100030.63;10162703;29;20052;-65
2021/01/19 04:31:32;;;;;;;3.92;2.40;;;;;;;2.87;66.09;100040.13;10177137;29;20107;-67
2021/01/19 04:36:33;;;;;;;4.40;2.35;;;;;;;2.87;66.16;100038.38;10176998;29;20052;-66
2021/01/19 04:41:36;;;;;;;2.30;2.10;;;;;;;3.00;65.79;100039.25;10178216;29;20096;-67
2021/01/19 04:46:40;;;;;;;2.45;2.00;;;;;;;2.90;66.34;100045.31;10177753;29;20071;-66
2021/01/19 04:51:45;;;;;;;1.83;1.73;;;;;;;2.89;66.01;100046.19;10160406;29;20570;-67
2021/01/19 04:56:53;;;;;;;2.40;1.90;;;;;;;2.90;66.00;100033.22;10176650;29;20076;-67
2021/01/19 05:01:54;;;;;;;3.78;2.30;;;;;;;3.02;65.78;100034.94;10178155;29;20551;-66
2021/01/19 05:07:37;;;;;;;2.58;2.38;;;;;;;3.03;65.50;100014.16;10175948;29;20104;-67
2021/01/19 05:12:42;;;;;;;3.08;2.15;;;;;;;2.92;66.15;100005.53;10096471;29;20057;-66
2021/01/19 05:17:44;;;;;;;4.43;2.70;;;;;;;2.92;66.38;99994.25;10094871;29;20443;-67
2021/01/19 05:22:46;;;;;;;3.63;3.03;;;;;;;2.84;66.72;99983.03;10095223;29;20139;-67
2021/01/19 05:27:48;;;;;;;3.20;2.90;;;;;;;2.79;66.98;99980.44;10095070;29;20052;-67
2021/01/19 05:32:49;;;;;;;2.65;2.45;;;;;;;2.93;66.38;99977.81;10094811;29;20105;-66
2021/01/19 05:37:58;;;;;;;3.38;2.28;;;;;;;2.96;66.12;99983.84;10094954;29;20049;-66
2021/01/19 05:43:09;;;;;;;3.05;2.38;;;;;;;2.88;66.48;99995.13;10095062;29;20085;-66
2021/01/19 05:48:14;;;;;;;3.08;2.60;;;;;;;2.96;66.43;100001.16;10155523;29;20052;-67
2021/01/19 05:53:16;;;;;;;4.13;3.78;;;;;;;2.95;66.27;99995.13;10176851;29;20048;-66
2021/01/19 05:58:17;;;;;;;3.28;3.00;;;;;;;2.94;66.61;99983.00;10176770;29;20507;-66
2021/01/19 06:03:18;;;;;;;3.13;2.83;;;;;;;2.84;66.97;99981.31;10176802;29;20040;-67
2021/01/19 06:08:23;;;;;;;3.95;3.55;;;;;;;2.94;66.38;99966.56;10176433;29;20052;-67
2021/01/19 06:13:25;;;;;;;3.85;3.38;;;;;;;2.90;66.87;99972.63;10178675;29;20375;-67
2021/01/19 06:18:35;;;;;;;3.33;2.75;;;;;;;2.90;66.56;99968.31;10181659;29;20044;-67
2021/01/19 06:23:46;;;;;;;4.35;3.95;;;;;;;2.89;66.64;99970.91;10182889;29;20072;-67
2021/01/19 06:28:47;;;;;;;3.92;3.63;;;;;;;2.87;67.03;99962.25;10181225;29;20505;-68
2021/01/19 06:33:50;;;;;;;4.50;3.40;;;;;;;2.93;66.54;99963.09;10183781;29;20472;-66
2021/01/19 06:38:52;;;;;;;3.55;3.22;;;;;;;2.66;67.42;99964.03;10184231;29;20095;-67
2021/01/19 06:43:59;;;;;;;4.03;3.30;;;;;;;2.76;66.58;99951.88;10182677;29;20079;-67
2021/01/19 06:49:01;;;;;;;5.72;3.53;;;;;;;2.90;66.48;99949.25;10166550;29;20091;-67
2021/01/19 06:54:06;;;;;;;4.10;3.08;;;;;;;2.83;66.49;99943.19;10182947;29;20048;-66
2021/01/19 06:59:20;;;;;;;5.97;3.70;;;;;;;2.87;66.39;99944.06;10181733;29;20044;-67
2021/01/19 07:04:25;;;;;;;3.25;2.95;;;;;;;2.90;66.44;99921.56;10181819;29;20130;-66
2021/01/19 07:09:42;;;;;;;3.83;3.10;;;;;;;2.82;66.90;99917.25;10182615;29;20099;-65
2021/01/19 07:14:58;;;;;;;2.88;2.58;;;;;;;2.75;67.23;99914.69;10181746;29;20044;-67
2021/01/19 07:20:01;;;;;;;4.80;3.80;;;;;;;2.92;66.35;99903.38;10181220;29;20052;-67
2021/01/19 07:25:02;;;;;;;5.72;3.63;;;;;;;2.92;66.52;99899.06;10179842;29;20090;-66
2021/01/19 07:30:06;;;;;;;5.82;3.60;;;;;;;2.89;66.57;99891.28;10180533;29;20052;-66
2021/01/19 07:35:09;;;;;;;4.47;3.20;;;;;;;2.86;66.76;99880.91;10180666;29;20103;-67
2021/01/19 07:40:20;;;;;;;4.07;3.38;;;;;;;2.92;66.38;99864.44;10181175;29;20123;-67
2021/01/19 07:45:35;;;;;;;4.97;2.40;;;;;;;2.86;66.55;99860.13;10178972;29;20052;-66
2021/01/19 07:50:44;;;;;;;3.90;2.35;;;;;;;2.93;65.98;99855.81;10180143;29;20566;-67
2021/01/19 07:55:46;;;;;;;5.70;2.70;;;;;;;3.15;65.23;99843.59;10181955;29;20429;-66
2021/01/19 08:00:56;;;;;;;4.70;1.98;;;;;;;2.99;65.11;99846.25;10179841;29;20482;-66
2021/01/19 08:06:10;;;;;;;2.70;1.60;;;;;;;3.06;65.21;99831.50;10178826;29;20068;-66
2021/01/19 08:11:22;;;;;;;2.88;1.83;;;;;;;3.03;64.39;99831.50;10178502;29;20044;-66
2021/01/19 08:16:41;;;;;;;3.58;1.50;;;;;;;3.07;64.05;99827.19;10180099;29;20044;-67
2021/01/19 08:21:50;;;;;;;3.03;1.63;;;;;;;3.00;63.93;99814.19;10180208;29;20051;-65
2021/01/19 08:26:52;;;;;;;2.90;1.33;;;;;;;3.05;63.37;99808.97;10180591;29;20048;-65
2021/01/19 08:32:04;;;;;;;3.53;1.50;;;;;;;2.99;63.53;99819.41;10179354;29;20095;-66
2021/01/19 08:37:05;;;;;;;3.00;1.60;;;;;;;3.04;62.98;99796.88;10178263;29;20136;-66
2021/01/19 08:42:10;;;;;;;2.78;1.23;;;;;;;3.17;62.19;99774.31;10178374;29;20048;-66
2021/01/19 08:47:12;;;;;;;3.00;1.25;;;;;;;3.08;62.37;99783.00;10178490;29;20055;-67
2021/01/19 08:52:25;;;;;;;2.38;1.30;;;;;;;3.15;62.08;99778.66;10177657;29;20096;-66
2021/01/19 08:57:26;;;;;;;4.45;1.58;;;;;;;3.29;61.92;99769.03;10178099;29;20096;-65
2021/01/19 09:02:47;;;;;;;3.47;1.90;;;;;;;3.35;61.21;99770.72;10179160;29;20048;-67
2021/01/19 09:07:48;;;;;;;1.67;1.02;;;;;;;3.24;61.64;99757.81;10177523;29;20099;-66
2021/01/19 09:12:50;;;;;;;3.80;2.13;;;;;;;3.39;60.70;99757.72;10178420;29;20086;-65
2021/01/19 09:17:57;;;;;;;2.38;1.38;;;;;;;3.43;60.87;99754.22;10191408;23;20052;-65
2021/01/19 09:23:15;;;;;;;2.60;1.25;;;;;;;3.48;61.36;99756.78;10174947;29;20127;-65
2021/01/19 09:28:17;;;;;;;3.08;1.27;;;;;;;3.60;60.24;99751.50;10177436;29;20491;-64
2021/01/19 09:33:18;;;;;;;3.90;1.52;;;;;;;3.71;59.66;99749.66;10176533;29;20124;-66
2021/01/19 09:38:24;;;;;;;2.10;1.13;;;;;;;3.84;59.95;99740.00;10175237;29;20092;-65
2021/01/19 09:43:26;;;;;;;2.63;1.35;;;;;;;3.83;60.14;99725.28;10174410;29;20043;-66
2021/01/19 09:48:30;;;;;;;2.90;1.08;;;;;;;3.80;59.55;99713.16;10174050;29;20496;-66
2021/01/19 09:53:33;;;;;;;3.03;0.98;;;;;;;3.87;59.12;99698.38;10184180;29;20048;-66
2021/01/19 09:58:35;;;;;;;3.53;1.60;;;;;;;3.81;59.47;99688.06;10183307;29;20630;-66
2021/01/19 10:03:36;;;;;;;3.72;1.20;;;;;;;3.77;59.32;99683.75;10184614;29;20054;-66
2021/01/19 10:08:38;;;;;;;6.47;1.45;;;;;;;3.88;59.06;99678.44;10181008;29;20502;-66
2021/01/19 10:13:39;;;;;;;4.35;1.48;;;;;;;3.84;59.39;99672.41;10181912;29;20095;-66
2021/01/19 10:18:42;;;;;;;3.03;1.42;;;;;;;3.98;58.88;99654.91;10179726;29;20044;-66
2021/01/19 10:23:48;;;;;;;5.13;1.38;;;;;;;3.99;59.46;99650.59;10181260;29;20091;-67
2021/01/19 10:28:55;;;;;;;3.23;1.27;;;;;;;4.19;57.89;99626.94;10180977;29;20079;-65
2021/01/19 10:33:58;;;;;;;2.38;1.30;;;;;;;4.23;58.09;99611.28;10179550;29;20052;-65
2021/01/19 10:39:20;;;;;;;3.08;1.25;;;;;;;4.14;59.36;99608.78;10179276;29;20075;-65
2021/01/19 10:44:23;;;;;;;3.10;1.20;;;;;;;4.45;57.53;99603.19;10179471;29;20127;-65
2021/01/19 10:49:32;;;;;;;3.33;1.40;;;;;;;4.41;57.88;99578.94;10180327;29;20052;-66
2021/01/19 10:54:33;;;;;;;7.65;1.83;;;;;;;4.42;57.21;99569.38;10180163;29;20048;-66
2021/01/19 10:59:35;;;;;;;3.58;1.08;;;;;;;4.49;56.82;99550.22;10179112;29;20040;-65
2021/01/19 11:04:36;;;;;;;3.53;1.30;;;;;;;4.54;56.46;99543.19;10179572;29;20056;-65
2021/01/19 11:09:38;;;;;;;2.63;1.40;;;;;;;4.47;57.85;99533.75;10182384;29;20040;-66
2021/01/19 11:14:39;;;;;;;5.57;1.27;;;;;;;4.33;57.18;99522.69;10182979;29;20047;-68
2021/01/19 11:19:40;;;;;;;2.75;1.13;;;;;;;4.54;57.43;99502.41;10181645;29;20099;-66
2021/01/19 11:24:41;;;;;;;4.05;1.13;;;;;;;4.53;57.14;99487.66;10181123;29;20048;-65
2021/01/19 11:29:43;;;;;;;3.05;1.52;;;;;;;4.38;56.17;99472.28;10177993;29;20146;-66
2021/01/19 11:34:44;;;;;;;4.13;1.60;;;;;;;4.35;57.62;99459.34;10178898;29;20131;-66
2021/01/19 11:39:45;;;;;;;2.25;1.23;;;;;;;4.34;57.30;99442.03;10177446;29;20048;-67
2021/01/19 11:44:46;;;;;;;4.45;1.30;;;;;;;4.40;56.53;99428.03;10177746;29;20044;-67
2021/01/19 11:49:48;;;;;;;4.65;1.35;;;;;;;4.22;56.96;99403.19;10178300;29;20056;-67
2021/01/19 11:54:50;;;;;;;3.40;1.40;;;;;;;4.22;58.35;99392.78;10177475;29;20112;-65
2021/01/19 11:59:51;;;;;;;2.78;1.38;;;;;;;4.04;59.42;99383.53;10178219;29;20046;-67
2021/01/19 12:04:52;;;;;;;3.53;1.60;;;;;;;3.98;60.33;99363.66;10177124;29;20126;-66
2021/01/19 12:09:53;;;;;;;3.45;1.30;;;;;;;3.57;63.74;99345.25;10175647;29;20103;-65
2021/01/19 12:14:54;;;;;;;2.90;1.20;;;;;;;3.36;64.79;99333.41;10175560;29;20112;-66
2021/01/19 12:19:56;;;;;;;4.60;1.90;;;;;;;3.36;65.37;99318.66;10176218;29;20036;-66
2021/01/19 12:24:58;;;;;;;7.85;2.50;;;;;;;3.22;66.57;99297.22;10176734;29;20060;-65
2021/01/19 12:29:59;;;;;;;5.72;1.80;;;;;;;3.20;66.29;99286.03;10176045;29;20054;-65
2021/01/19 12:35:01;;;;;;;4.28;1.52;;;;;;;3.21;67.19;99274.75;10176201;29;20416;-67
2021/01/19 12:40:05;;;;;;;3.75;1.58;;;;;;;3.12;67.19;99254.09;10175331;29;20082;-66
2021/01/19 12:45:07;;;;;;;4.20;1.60;;;;;;;3.06;68.38;99234.28;10174538;29;20123;-66
2021/01/19 12:50:09;;;;;;;3.25;1.40;;;;;;;2.98;68.39;99212.75;10161152;29;20052;-66
2021/01/19 12:55:11;;;;;;;2.10;1.40;;;;;;;3.15;68.39;99196.94;10175164;29;20130;-65
2021/01/19 13:00:13;;;;;;;2.42;1.50;;;;;;;3.12;68.87;99184.84;10175526;29;20044;-66
2021/01/19 13:05:14;;;;;;;4.72;1.98;;;;;;;3.11;69.14;99187.47;10176052;29;20474;-66
2021/01/19 13:10:16;;;;;;;6.10;2.35;;;;;;;3.10;69.14;99170.16;10176633;29;20482;-66
2021/01/19 13:15:17;;;;;;;3.88;1.90;;;;;;;3.12;69.91;99174.47;10177037;29;20044;-66
2021/01/19 13:20:19;;;;;;;2.90;1.40;;;;;;;3.29;69.13;99166.41;10174989;29;20044;-66
2021/01/19 13:25:20;;;;;;;3.53;1.50;;;;;;;3.38;69.00;99160.19;10176638;29;20078;-67
2021/01/19 13:30:22;;;;;;;4.50;1.80;;;;;;;3.35;69.87;99174.09;10176379;29;20048;-65
2021/01/19 13:35:23;;;;;;;1.85;1.20;;;;;;;3.35;69.54;99175.84;10176514;29;20040;-65
2021/01/19 13:40:25;;;;;;;2.33;1.30;;;;;;;3.21;70.62;99181.25;10175266;29;20040;-66
2021/01/19 13:45:26;;;;;;;2.47;1.00;;;;;;;3.19;70.39;99181.28;10175651;29;20086;-64
2021/01/19 13:50:27;;;;;;;4.57;1.40;;;;;;;3.00;71.33;99180.69;10174431;29;20052;-66
2021/01/19 13:55:28;;;;;;;1.40;1.00;;;;;;;2.90;71.31;99165.28;10174271;29;20123;-65
2021/01/19 14:00:31;;;;;;;1.23;0.80;;;;;;;2.86;71.78;99161.88;10175126;29;20116;-66
2021/01/19 14:05:33;;;;;;;2.53;0.73;;;;;;;2.93;72.27;99158.31;10177117;29;20060;-66
2021/01/19 14:10:34;;;;;;;1.92;1.05;;;;;;;2.94;71.92;99151.38;10173585;29;20541;-66
2021/01/19 14:15:35;;;;;;;2.33;1.10;;;;;;;2.77;72.18;99142.09;10175026;29;20048;-66
2021/01/19 14:20:36;;;;;;;1.77;0.90;;;;;;;2.75;72.32;99146.47;10175726;29;20115;-67
2021/01/19 14:25:37;;;;;;;2.65;0.80;;;;;;;2.82;71.97;99139.44;10176151;29;20116;-66
2021/01/19 14:30:39;;;;;;;1.15;0.70;;;;;;;2.87;71.22;99148.00;10174123;29;20112;-65
2021/01/19 14:35:40;;;;;;;0.90;0.80;;;;;;;2.92;70.98;99143.63;10173179;29;20093;-66
2021/01/19 14:40:41;;;;;;;1.13;0.70;;;;;;;2.93;71.02;99139.28;10177598;29;20142;-66
2021/01/19 14:45:44;;;;;;;1.25;0.80;;;;;;;2.96;71.32;99136.63;10180354;29;20124;-65
2021/01/19 14:50:46;;;;;;;0.75;0.70;;;;;;;2.92;70.69;99117.66;10179404;29;20079;-66
2021/01/19 14:55:47;;;;;;;0.90;0.70;;;;;;;2.91;71.22;99120.25;10179111;29;20506;-65
2021/01/19 15:00:49;;;;;;;0.95;0.55;;;;;;;2.92;71.27;99135.84;10179033;29;20053;-65
2021/01/19 15:05:50;;;;;;;0.55;0.55;;;;;;;3.00;70.58;99120.13;10179497;29;20074;-65
2021/01/19 15:10:51;;;;;;;2.50;0.47;;;;;;;2.94;70.83;99130.59;10178451;29;20507;-66
2021/01/19 15:15:52;;;;;;;0.50;0.50;;;;;;;2.98;71.22;99138.31;10178567;29;20044;-66
2021/01/19 15:20:54;;;;;;;0.75;0.50;;;;;;;2.92;71.26;99133.25;10194745;23;20081;-67
2021/01/19 15:25:55;;;;;;;0.70;0.40;;;;;;;2.87;71.15;99119.44;10182120;29;20052;-67
2021/01/19 15:30:56;;;;;;;0.43;0.35;;;;;;;2.83;71.65;99112.59;10181197;29;20052;-67
2021/01/19 15:35:58;;;;;;;0.77;0.40;;;;;;;2.91;71.21;99115.06;10182700;29;20063;-67
2021/01/19 15:40:59;;;;;;;1.17;0.50;;;;;;;2.93;70.80;99124.56;10182315;29;20084;-68
2021/01/19 15:46:00;;;;;;;0.35;0.35;;;;;;;3.03;70.53;99117.47;10181990;29;20115;-68
2021/01/19 15:51:05;;;;;;;0.45;0.40;;;;;;;3.04;70.40;99112.25;10179665;29;20115;-66
2021/01/19 15:56:06;;;;;;;0.40;0.30;;;;;;;3.16;69.34;99111.22;10183306;29;20107;-66
2021/01/19 16:01:08;;;;;;;0.73;0.40;;;;;;;3.13;69.71;99107.78;10181250;29;20067;-68
2021/01/19 16:06:09;;;;;;;0.98;0.57;;;;;;;3.20;69.54;99107.69;10178869;29;20071;-67
2021/01/19 16:11:11;;;;;;;0.60;0.50;;;;;;;3.23;69.83;99109.34;10179812;29;20040;-67
2021/01/19 16:16:20;;;;;;;0.40;0.40;;;;;;;3.00;71.38;99104.53;10180190;29;20115;-66
2021/01/19 16:21:23;;;;;;;0.40;0.40;;;;;;;2.90;71.33;99098.63;10179755;29;20051;-67
2021/01/19 16:26:27;;;;;;;0.40;0.40;;;;;;;2.94;71.38;99091.66;10179167;29;20047;-67
2021/01/19 16:31:36;;;;;;;0.60;0.40;;;;;;;2.94;71.43;99089.94;10179223;29;20048;-67
2021/01/19 16:36:39;;;;;;;1.48;0.70;;;;;;;2.96;71.08;99093.34;10179348;29;20099;-67
2021/01/19 16:41:43;;;;;;;4.28;1.05;;;;;;;2.99;71.01;99084.66;10179341;29;20182;-67
2021/01/19 16:46:49;;;;;;;0.60;0.52;;;;;;;3.07;71.16;99092.34;10162296;29;20063;-67
2021/01/19 16:51:50;;;;;;;1.35;0.60;;;;;;;3.08;71.03;99084.50;10177488;29;20052;-64
2021/01/19 16:56:51;;;;;;;0.68;0.60;;;;;;;3.04;71.81;99086.28;10180072;29;20461;-66
2021/01/19 17:01:56;;;;;;;1.60;0.85;;;;;;;2.98;72.24;99085.56;10179698;29;20130;-66
2021/01/19 17:06:59;;;;;;;0.70;0.70;;;;;;;2.94;72.16;99096.88;10161866;29;20080;-66
2021/01/19 17:12:00;;;;;;;0.75;0.60;;;;;;;2.98;71.89;99086.41;10177288;29;20052;-67
2021/01/19 17:17:01;;;;;;;1.00;0.80;;;;;;;2.95;72.58;99086.44;10177633;29;20044;-67
2021/01/19 17:22:03;;;;;;;1.33;0.80;;;;;;;3.08;71.94;99088.84;10176201;29;20064;-66
2021/01/19 17:27:05;;;;;;;1.00;0.80;;;;;;;3.14;71.81;99087.00;10174312;29;20092;-68
2021/01/19 17:32:07;;;;;;;1.15;0.80;;;;;;;3.26;71.26;99093.72;10175934;29;20075;-66
2021/01/19 17:37:09;;;;;;;1.20;0.80;;;;;;;3.39;70.55;99086.56;10176545;29;20126;-66
2021/01/19 17:42:10;;;;;;;1.05;0.65;;;;;;;3.52;69.87;99085.47;10176509;29;20044;-65
2021/01/19 17:47:14;;;;;;;0.80;0.80;;;;;;;3.47;69.96;99074.31;10177539;29;20049;-67
2021/01/19 17:52:16;;;;;;;0.60;0.57;;;;;;;3.59;70.02;99075.84;10179943;29;20097;-67
2021/01/19 17:57:17;;;;;;;0.60;0.60;;;;;;;3.58;69.96;99100.94;10178784;29;20045;-68
2021/01/19 18:02:19;;;;;;;0.70;0.70;;;;;;;3.51;70.45;99101.94;10182133;29;20048;-67
2021/01/19 18:07:21;;;;;;;0.85;0.70;;;;;;;3.56;70.38;99104.47;10166535;29;20048;-68
2021/01/19 18:12:26;;;;;;;1.85;0.70;;;;;;;3.59;70.15;99104.41;10182892;29;20048;-67
2021/01/19 18:17:27;;;;;;;0.73;0.63;;;;;;;3.58;70.51;99103.53;10188790;29;20036;-67
2021/01/19 18:22:29;;;;;;;0.75;0.70;;;;;;;3.68;70.54;99120.69;10186707;29;20072;-65
2021/01/19 18:27:30;;;;;;;0.90;0.70;;;;;;;3.69;70.91;99113.75;10185913;29;20410;-67
2021/01/19 18:32:32;;;;;;;4.97;0.70;;;;;;;3.74;70.75;99111.91;10186543;29;20108;-67
2021/01/19 18:37:33;;;;;;;1.13;0.65;;;;;;;3.71;70.66;99131.00;10186414;29;20095;-68
2021/01/19 18:42:35;;;;;;;0.75;0.75;;;;;;;3.81;70.60;99123.94;10186077;29;20063;-68
2021/01/19 18:47:36;;;;;;;1.52;0.60;;;;;;;3.93;70.59;99112.41;10184010;29;20505;-69
2021/01/19 18:52:38;;;;;;;0.63;0.63;;;;;;;4.07;70.17;99109.53;10183437;29;20108;-67
2021/01/19 18:57:46;;;;;;;1.42;1.02;;;;;;;4.07;69.98;99133.78;10182551;29;20119;-68
2021/01/19 19:02:47;;;;;;;1.58;0.90;;;;;;;4.18;69.57;99126.66;10181659;29;20047;-68
2021/01/19 19:07:49;;;;;;;1.23;1.13;;;;;;;4.19;70.04;99132.69;10180174;29;20101;-67
2021/01/19 19:12:52;;;;;;;1.85;1.00;;;;;;;4.23;69.85;99126.53;10180851;29;20076;-67
2021/01/19 19:17:57;;;;;;;1.08;1.00;;;;;;;4.20;70.21;99132.66;10183443;29;20486;-67
2021/01/19 19:22:59;;;;;;;1.35;0.98;;;;;;;4.25;69.88;99136.03;10182130;29;20052;-68
2021/01/19 19:28:00;;;;;;;1.15;0.90;;;;;;;4.28;69.84;99148.97;10182875;29;20078;-68
2021/01/19 19:33:03;;;;;;;1.58;1.42;;;;;;;4.31;69.99;99148.06;10181271;29;20048;-68
2021/01/19 19:38:05;;;;;;;1.77;1.63;;;;;;;4.26;71.00;99145.56;10182669;29;20070;-67
2021/01/19 19:43:06;;;;;;;2.38;1.50;;;;;;;4.21;71.92;99131.78;10181796;29;20052;-68
2021/01/19 19:48:08;;;;;;;2.00;1.40;;;;;;;4.14;72.45;99145.78;10179751;29;20048;-67
2021/01/19 19:53:10;;;;;;;2.47;2.28;;;;;;;4.14;72.10;99143.19;10180866;29;20131;-68
2021/01/19 19:58:11;;;;;;;1.75;1.50;;;;;;;4.26;71.51;99129.94;10179280;29;20044;-67
2021/01/19 20:03:12;;;;;;;1.80;1.70;;;;;;;4.35;71.06;99147.13;10181218;29;20060;-69
2021/01/19 20:08:13;;;;;;;1.73;1.40;;;;;;;4.56;69.95;99130.19;10181445;29;20048;-67
2021/01/19 20:13:15;;;;;;;1.42;1.30;;;;;;;4.68;69.58;99142.06;10179686;29;20075;-67
2021/01/19 20:18:17;;;;;;;1.80;1.70;;;;;;;4.70;69.90;99143.75;10178286;29;20048;-68
2021/01/19 20:23:19;;;;;;;1.90;1.80;;;;;;;4.90;68.97;99137.22;10179764;29;20044;-68
2021/01/19 20:28:20;;;;;;;1.40;1.30;;;;;;;4.91;69.00;99139.78;10178266;29;20051;-67
2021/01/19 20:33:22;;;;;;;1.42;1.33;;;;;;;5.05;68.65;99150.75;10178052;29;20048;-67
2021/01/19 20:38:23;;;;;;;1.50;1.17;;;;;;;5.07;68.37;99142.91;10178826;29;20044;-66
2021/01/19 20:43:24;;;;;;;1.83;1.10;;;;;;;5.16;68.54;99165.28;10178778;29;20131;-68
2021/01/19 20:48:26;;;;;;;1.60;1.50;;;;;;;5.06;68.70;99165.50;10178907;29;20044;-67
2021/01/19 20:53:27;;;;;;;1.35;1.17;;;;;;;5.00;68.98;99165.66;10178629;29;20506;-68
2021/01/19 20:58:28;;;;;;;1.50;1.40;;;;;;;5.12;68.42;99156.66;10178692;29;20495;-66
2021/01/19 21:03:29;;;;;;;1.38;1.17;;;;;;;5.05;68.66;99162.94;10178048;29;20056;-67
2021/01/19 21:08:30;;;;;;;1.63;1.27;;;;;;;5.22;68.17;99170.31;10177675;29;20056;-67
2021/01/19 21:13:32;;;;;;;1.50;1.40;;;;;;;5.20;68.16;99187.75;10178273;29;20075;-70
2021/01/19 21:18:33;;;;;;;2.35;1.17;;;;;;;5.22;68.06;99191.16;10177658;29;20376;-66
2021/01/19 21:23:34;;;;;;;1.13;1.10;;;;;;;5.17;68.26;99180.84;10178408;29;20050;-66
2021/01/19 21:28:35;;;;;;;1.20;1.10;;;;;;;5.18;67.98;99177.38;10177607;29;20109;-67
2021/01/19 21:33:37;;;;;;;1.42;1.27;;;;;;;5.11;68.49;99180.16;10178096;29;20123;-67
2021/01/19 21:38:38;;;;;;;1.42;1.33;;;;;;;5.10;68.13;99179.31;10177659;29;20044;-67
2021/01/19 21:43:40;;;;;;;1.40;1.30;;;;;;;5.03;68.28;99189.00;10178300;29;20478;-67
2021/01/19 21:48:44;;;;;;;1.60;1.50;;;;;;;4.83;68.53;99183.41;10184229;29;20071;-68
2021/01/19 21:53:45;;;;;;;2.00;1.50;;;;;;;4.80;68.68;99186.91;10187113;29;20055;-66
2021/01/19 21:58:46;;;;;;;1.80;1.70;;;;;;;4.70;69.14;99188.00;10186996;29;20455;-67
2021/01/19 22:03:49;;;;;;;2.28;2.08;;;;;;;4.69;69.01;99199.31;10186154;29;20055;-67
2021/01/19 22:08:50;;;;;;;1.50;1.40;;;;;;;4.76;68.90;99207.84;10185908;29;20127;-67
2021/01/19 22:13:52;;;;;;;1.50;1.40;;;;;;;4.78;68.71;99225.16;10185777;29;20096;-67
2021/01/19 22:18:53;;;;;;;1.40;1.30;;;;;;;4.81;68.50;99250.25;10185473;29;20068;-67
2021/01/19 22:23:54;;;;;;;1.45;1.35;;;;;;;4.82;68.21;99241.56;10185249;29;20067;-68
2021/01/19 22:28:56;;;;;;;1.63;1.42;;;;;;;4.65;68.39;99241.94;10184806;29;20052;-67
2021/01/19 22:33:57;;;;;;;2.10;1.50;;;;;;;4.83;67.74;99232.88;10184362;29;20132;-67
2021/01/19 22:38:58;;;;;;;0.90;0.90;;;;;;;4.88;67.73;99236.22;10185096;29;20048;-73
2021/01/19 22:44:00;;;;;;;1.48;1.30;;;;;;;4.93;67.69;99217.91;10184409;29;20087;-68
2021/01/19 22:49:01;;;;;;;1.10;0.98;;;;;;;4.89;67.62;99224.91;10185262;29;20464;-67
2021/01/19 22:54:02;;;;;;;0.90;0.90;;;;;;;4.87;67.95;99237.13;10184125;29;20566;-66
2021/01/19 22:59:03;;;;;;;1.20;0.93;;;;;;;4.95;67.49;99221.31;10183429;29;20048;-68
2021/01/19 23:04:04;;;;;;;1.35;1.10;;;;;;;5.01;67.49;99229.88;10183817;29;20051;-70
2021/01/19 23:09:06;;;;;;;1.05;0.88;;;;;;;5.05;67.30;99239.31;10184043;29;20040;-66
2021/01/19 23:14:07;;;;;;;1.02;0.98;;;;;;;5.07;67.22;99206.28;10183440;29;20449;-68
2021/01/19 23:19:09;;;;;;;0.80;0.70;;;;;;;5.17;67.38;99219.94;10182782;29;20558;-67
2021/01/19 23:24:10;;;;;;;1.10;1.00;;;;;;;5.20;67.33;99203.41;10183035;29;20079;-67
2021/01/19 23:29:11;;;;;;;1.02;0.70;;;;;;;5.24;67.21;99216.31;10181695;29;20044;-67
2021/01/19 23:34:12;;;;;;;1.15;0.80;;;;;;;5.14;67.57;99227.00;10182172;29;20107;-68
2021/01/19 23:39:14;;;;;;;1.00;0.90;;;;;;;5.09;67.68;99226.22;10180570;29;20526;-68
2021/01/19 23:44:15;;;;;;;1.20;1.02;;;;;;;4.97;68.31;99225.63;10182222;29;20510;-68